Time;durP1;ratioP1;P1;durP2;ratioP2;P2;SDS_P1;SDS_P2;PMS_P1;PMS_P2;Temp;Humidity;BMP_temperature;BMP_pressure;BME280_temperature;BME280_humidity;BME280_pressure;Samples;Min_cycle;Max_cycle;Signal;HPM_P1;HPM_P2
2023/12/10 00:00:09;;;;;;;28.13;6.13;;;8.90;99.90;;;;;;5037269;28;20041;-92
2023/12/10 00:02:35;;;;;;;27.13;5.77;;;8.90;99.90;;;;;;5037021;28;20037;-85
2023/12/10 00:05:01;;;;;;;29.07;5.73;;;8.80;99.90;;;;;;5053478;28;20063;-85
2023/12/10 00:07:27;;;;;;;28.53;6.00;;;8.70;99.90;;;;;;5037021;28;20041;-86
2023/12/10 00:09:53;;;;;;;29.27;5.70;;;8.70;99.90;;;;;;5020852;28;20043;-87
2023/12/10 00:12:18;;;;;;;34.47;6.10;;;8.70;99.90;;;;;;5026751;28;20522;-84
2023/12/10 00:14:49;;;;;;;25.27;5.90;;;8.70;99.90;;;;;;5053396;28;20056;-87
2023/12/10 00:17:15;;;;;;;25.33;6.23;;;8.60;99.90;;;;;;5037974;28;20041;-86
2023/12/10 00:19:41;;;;;;;29.07;6.40;;;8.60;99.90;;;;;;5036636;28;20037;-87
2023/12/10 00:22:07;;;;;;;20.33;5.47;;;8.60;99.90;;;;;;5020185;28;20045;-87
2023/12/10 00:24:32;;;;;;;25.03;6.23;;;8.50;99.90;;;;;;5036496;28;20076;-87
2023/12/10 00:26:58;;;;;;;23.03;5.73;;;8.50;99.90;;;;;;5019890;28;20048;-88
2023/12/10 00:29:24;;;;;;;26.50;5.87;;;8.50;99.90;;;;;;5040855;28;20037;-88
2023/12/10 00:31:50;;;;;;;31.57;6.57;;;8.50;99.90;;;;;;5054345;28;20642;-90
2023/12/10 00:34:16;;;;;;;28.57;5.43;;;8.50;99.90;;;;;;5036768;28;20144;-89
2023/12/10 00:36:42;;;;;;;36.27;6.23;;;8.50;99.90;;;;;;5020560;28;20041;-88
2023/12/10 00:39:09;;;;;;;29.17;6.37;;;8.50;99.90;;;;;;5020592;28;20079;-88
2023/12/10 00:41:35;;;;;;;26.40;6.23;;;8.60;99.90;;;;;;5035897;28;20048;-88
2023/12/10 00:44:03;;;;;;;28.40;6.53;;;8.60;99.90;;;;;;5040290;28;20083;-89
2023/12/10 00:46:28;;;;;;;29.10;6.30;;;8.60;99.90;;;;;;5036517;28;20052;-89
2023/12/10 00:48:54;;;;;;;27.10;6.23;;;8.70;99.90;;;;;;5037237;28;20040;-89
2023/12/10 00:51:21;;;;;;;25.33;6.23;;;8.60;99.90;;;;;;5025326;28;20118;-88
2023/12/10 00:53:47;;;;;;;30.63;6.03;;;8.70;99.90;;;;;;5035137;28;20036;-85
2023/12/10 00:56:14;;;;;;;25.83;6.57;;;8.70;99.90;;;;;;5022028;28;20499;-85
2023/12/10 00:58:40;;;;;;;25.43;5.80;;;8.70;99.90;;;;;;5056275;28;20040;-87
2023/12/10 01:01:07;;;;;;;28.67;6.47;;;8.70;99.90;;;;;;5036094;28;20115;-85
2023/12/10 01:03:34;;;;;;;23.87;5.60;;;8.80;99.90;;;;;;5036181;28;20036;-86
2023/12/10 01:06:01;;;;;;;23.07;5.80;;;8.80;99.90;;;;;;5063910;28;20047;-88
2023/12/10 01:08:26;;;;;;;21.03;5.57;;;8.90;99.90;;;;;;5021789;28;20048;-86
2023/12/10 01:10:52;;;;;;;19.30;4.77;;;8.90;99.90;;;;;;5052218;28;20044;-88
2023/12/10 01:13:18;;;;;;;21.00;5.33;;;8.90;99.90;;;;;;5017948;28;20047;-87
2023/12/10 01:15:43;;;;;;;22.97;5.10;;;8.90;99.90;;;;;;5021097;28;20387;-88
2023/12/10 01:18:10;;;;;;;22.23;5.20;;;8.80;99.90;;;;;;5018643;28;20052;-85
2023/12/10 01:20:37;;;;;;;20.57;4.43;;;8.70;99.90;;;;;;5036117;28;20051;-90
2023/12/10 01:23:07;;;;;;;24.23;4.67;;;8.70;99.90;;;;;;5035945;28;20048;-87
2023/12/10 01:25:32;;;;;;;18.60;4.60;;;8.60;99.90;;;;;;5052351;28;20041;-86
2023/12/10 01:27:58;;;;;;;27.77;5.57;;;8.50;99.90;;;;;;5055319;28;20094;-91
2023/12/10 01:30:24;;;;;;;19.63;4.80;;;8.40;99.90;;;;;;5051726;28;20447;-88
2023/12/10 01:32:51;;;;;;;21.80;5.00;;;8.40;99.90;;;;;;5053288;28;20043;-86
2023/12/10 01:35:17;;;;;;;18.67;4.70;;;8.40;99.90;;;;;;5044593;28;20040;-86
2023/12/10 01:37:43;;;;;;;21.77;4.93;;;8.30;99.90;;;;;;5012933;28;20040;-85
2023/12/10 01:40:09;;;;;;;21.33;4.60;;;8.30;99.90;;;;;;5039483;28;20067;-87
2023/12/10 01:42:35;;;;;;;25.83;5.03;;;8.20;99.90;;;;;;5060901;28;20039;-91
2023/12/10 01:45:04;;;;;;;22.93;5.33;;;8.30;99.90;;;;;;5035635;28;20036;-87
2023/12/10 01:47:34;;;;;;;21.13;4.87;;;8.20;99.90;;;;;;5036699;28;20053;-90
2023/12/10 01:50:06;;;;;;;19.40;4.23;;;8.20;99.90;;;;;;5037495;28;20101;-92
2023/12/10 01:52:34;;;;;;;24.57;5.47;;;8.20;99.90;;;;;;5027613;28;20056;-86
2023/12/10 01:55:03;;;;;;;22.40;5.20;;;8.10;99.90;;;;;;5028418;28;20089;-92
2023/12/10 01:57:33;;;;;;;20.87;5.63;;;8.10;99.90;;;;;;5037653;28;20048;-93
2023/12/10 01:59:59;;;;;;;23.60;5.70;;;8.10;99.90;;;;;;5036019;28;20123;-88
2023/12/10 02:02:27;;;;;;;19.47;4.73;;;8.10;99.90;;;;;;5038486;28;20078;-91
2023/12/10 02:04:54;;;;;;;20.40;5.03;;;8.10;99.90;;;;;;5025034;28;20051;-91
2023/12/10 02:07:23;;;;;;;19.30;5.17;;;8.10;99.90;;;;;;5027080;28;20040;-84
2023/12/10 02:09:50;;;;;;;20.70;5.17;;;8.10;99.90;;;;;;5036770;28;20028;-88
2023/12/10 02:12:19;;;;;;;22.40;5.13;;;8.10;99.90;;;;;;5037552;28;20041;-84
2023/12/10 02:14:45;;;;;;;24.53;5.13;;;8.10;99.90;;;;;;5052951;28;20059;-85
2023/12/10 02:17:10;;;;;;;25.07;6.00;;;8.10;99.90;;;;;;5042961;28;20049;-87
2023/12/10 02:19:36;;;;;;;31.13;6.90;;;8.10;99.90;;;;;;5030912;28;20080;-85
2023/12/10 02:22:04;;;;;;;27.43;5.53;;;8.10;99.90;;;;;;5016650;28;20056;-90
2023/12/10 02:24:45;;;;;;;24.73;5.27;;;8.10;99.90;;;;;;5036392;28;20126;-90
2023/12/10 02:27:12;;;;;;;25.83;5.47;;;8.10;99.90;;;;;;5036305;28;20173;-86
2023/12/10 02:29:37;;;;;;;17.20;4.80;;;8.10;99.90;;;;;;5035214;28;20039;-90
2023/12/10 02:32:03;;;;;;;23.67;5.20;;;8.00;99.90;;;;;;5022725;28;20036;-91
2023/12/10 02:34:29;;;;;;;20.73;5.23;;;8.10;99.90;;;;;;5052502;28;20480;-88
2023/12/10 02:36:54;;;;;;;27.03;6.73;;;8.10;99.90;;;;;;5027736;28;20447;-85
2023/12/10 02:39:20;;;;;;;21.43;4.87;;;8.10;99.90;;;;;;5035038;28;20491;-90
2023/12/10 02:41:46;;;;;;;25.40;5.93;;;8.10;99.90;;;;;;5020274;28;20040;-83
2023/12/10 02:44:12;;;;;;;23.47;5.70;;;8.10;99.90;;;;;;4999100;28;20404;-89
2023/12/10 02:46:42;;;;;;;23.47;5.43;;;8.10;99.90;;;;;;5051889;28;20091;-85
2023/12/10 02:49:08;;;;;;;22.17;5.80;;;8.10;99.90;;;;;;5015379;28;20041;-91
2023/12/10 02:51:34;;;;;;;21.23;4.97;;;8.10;99.90;;;;;;5035051;28;20067;-85
2023/12/10 02:53:59;;;;;;;22.20;5.50;;;8.10;99.90;;;;;;5003408;28;20079;-88
2023/12/10 02:56:25;;;;;;;24.53;5.80;;;8.10;99.90;;;;;;5012000;28;20036;-87
2023/12/10 02:58:51;;;;;;;26.03;5.77;;;8.10;99.90;;;;;;5051384;28;20048;-88
2023/12/10 03:01:16;;;;;;;22.60;5.37;;;8.10;99.90;;;;;;5033868;28;20048;-83
2023/12/10 03:03:42;;;;;;;21.87;5.67;;;8.10;99.90;;;;;;5017959;28;20484;-85
2023/12/10 03:06:08;;;;;;;23.73;5.43;;;8.00;99.90;;;;;;5054993;28;20147;-89
2023/12/10 03:08:34;;;;;;;23.63;5.13;;;8.10;99.90;;;;;;5023420;28;20079;-87
2023/12/10 03:10:59;;;;;;;22.33;5.53;;;8.10;99.90;;;;;;5002239;28;20461;-85
2023/12/10 03:13:25;;;;;;;24.50;5.60;;;8.10;99.90;;;;;;5033490;28;20036;-87
2023/12/10 03:15:51;;;;;;;24.17;5.30;;;8.00;99.90;;;;;;5016937;28;20053;-89
2023/12/10 03:18:16;;;;;;;29.37;6.83;;;8.10;99.90;;;;;;5024215;28;20056;-85
2023/12/10 03:20:42;;;;;;;20.03;5.03;;;8.10;99.90;;;;;;5049996;28;20036;-86
2023/12/10 03:23:09;;;;;;;22.37;6.00;;;8.00;99.90;;;;;;5034041;28;20044;-91
2023/12/10 03:25:35;;;;;;;26.07;5.30;;;8.10;99.90;;;;;;5033619;28;20047;-87
2023/12/10 03:28:00;;;;;;;22.37;5.23;;;8.10;99.90;;;;;;5033905;28;20033;-84
2023/12/10 03:30:26;;;;;;;23.67;5.43;;;8.00;99.90;;;;;;5017016;28;20488;-82
2023/12/10 03:32:52;;;;;;;22.63;4.97;;;8.00;99.90;;;;;;5050311;28;20036;-85
2023/12/10 03:35:17;;;;;;;22.33;5.60;;;8.00;99.90;;;;;;5007751;28;20484;-84
2023/12/10 03:37:43;;;;;;;21.77;4.83;;;8.00;99.90;;;;;;5027931;28;20040;-82
2023/12/10 03:40:09;;;;;;;21.77;5.00;;;8.00;99.90;;;;;;5030036;28;20051;-88
2023/12/10 03:42:38;;;;;;;27.87;5.30;;;8.00;99.90;;;;;;5050546;28;20037;-89
2023/12/10 03:45:04;;;;;;;21.23;4.97;;;8.00;99.90;;;;;;5014642;28;20365;-88
2023/12/10 03:47:30;;;;;;;18.27;4.63;;;8.00;99.90;;;;;;5017570;28;20399;-86
2023/12/10 03:49:55;;;;;;;19.40;4.97;;;8.00;99.90;;;;;;5038932;28;20048;-87
2023/12/10 03:52:21;;;;;;;24.20;4.80;;;8.00;99.90;;;;;;5034874;28;20043;-85
2023/12/10 03:54:47;;;;;;;17.67;4.80;;;7.90;99.90;;;;;;5033375;28;20033;-84
2023/12/10 03:57:13;;;;;;;13.63;3.90;;;8.00;99.90;;;;;;5033561;28;20051;-87
2023/12/10 03:59:41;;;;;;;16.80;3.93;;;7.90;99.90;;;;;;5022680;28;20071;-83
2023/12/10 04:02:07;;;;;;;16.23;4.20;;;7.90;99.90;;;;;;5050512;28;20041;-85
2023/12/10 04:04:33;;;;;;;15.30;3.90;;;7.90;99.90;;;;;;5051266;28;20045;-82
2023/12/10 04:06:59;;;;;;;14.77;4.07;;;8.00;99.90;;;;;;5033069;28;20047;-84
2023/12/10 04:09:24;;;;;;;13.37;3.07;;;7.90;99.90;;;;;;5013458;28;20072;-81
2023/12/10 04:11:50;;;;;;;12.43;3.30;;;7.90;99.90;;;;;;5047363;28;20089;-81
2023/12/10 04:14:16;;;;;;;11.07;3.30;;;7.90;99.90;;;;;;5016847;28;20471;-83
2023/12/10 04:16:41;;;;;;;15.90;3.37;;;7.90;99.90;;;;;;5052381;28;20418;-88
2023/12/10 04:19:07;;;;;;;13.10;3.10;;;7.90;99.90;;;;;;5019028;28;20396;-89
2023/12/10 04:21:33;;;;;;;14.83;3.13;;;7.90;99.90;;;;;;5049600;28;20551;-85
2023/12/10 04:23:59;;;;;;;11.43;3.13;;;7.90;99.90;;;;;;5016976;28;20138;-84
2023/12/10 04:26:26;;;;;;;15.07;3.50;;;8.00;99.90;;;;;;5033535;28;20399;-84
2023/12/10 04:28:52;;;;;;;8.70;2.77;;;8.00;99.90;;;;;;5032793;28;20037;-83
2023/12/10 04:31:17;;;;;;;9.20;2.93;;;8.00;99.90;;;;;;5052850;28;20044;-82
2023/12/10 04:33:44;;;;;;;7.60;2.60;;;8.00;99.90;;;;;;5042837;28;20033;-82
2023/12/10 04:36:11;;;;;;;11.20;2.97;;;8.00;99.90;;;;;;5047442;28;20407;-86
2023/12/10 04:38:37;;;;;;;13.93;3.30;;;8.00;99.90;;;;;;5037110;28;20051;-81
2023/12/10 04:41:03;;;;;;;12.50;2.97;;;8.00;99.90;;;;;;5052509;28;20904;-84
2023/12/10 04:43:29;;;;;;;9.23;2.47;;;8.00;99.90;;;;;;5009139;28;20048;-89
2023/12/10 04:45:55;;;;;;;14.60;2.87;;;8.00;99.90;;;;;;5018567;28;20037;-88
2023/12/10 04:48:21;;;;;;;10.53;2.30;;;8.00;99.90;;;;;;5048687;28;20042;-89
2023/12/10 04:50:47;;;;;;;11.27;2.87;;;8.10;99.90;;;;;;5063674;28;20044;-86
2023/12/10 04:53:13;;;;;;;8.73;2.70;;;8.10;99.90;;;;;;5037845;28;20047;-89
2023/12/10 04:55:39;;;;;;;10.97;2.30;;;8.10;99.90;;;;;;5020525;28;20044;-85
2023/12/10 04:58:04;;;;;;;11.37;3.00;;;8.10;99.90;;;;;;5036074;28;20177;-85
2023/12/10 05:00:30;;;;;;;13.67;3.70;;;8.20;99.90;;;;;;5003777;28;20411;-88
2023/12/10 05:02:56;;;;;;;9.40;2.43;;;8.20;99.90;;;;;;5005397;28;20095;-82
2023/12/10 05:05:22;;;;;;;10.80;2.97;;;8.20;99.90;;;;;;5052411;28;20414;-85
2023/12/10 05:07:47;;;;;;;10.40;2.90;;;8.20;99.90;;;;;;5023205;28;20133;-85
2023/12/10 05:10:13;;;;;;;11.37;2.90;;;8.20;99.90;;;;;;5036955;28;20089;-84
2023/12/10 05:12:39;;;;;;;10.50;3.60;;;8.30;99.90;;;;;;5036401;28;20064;-90
2023/12/10 05:15:05;;;;;;;10.67;2.97;;;8.30;99.90;;;;;;5019387;28;20052;-87
2023/12/10 05:17:31;;;;;;;10.67;3.17;;;8.30;99.90;;;;;;5037039;28;20047;-88
2023/12/10 05:19:57;;;;;;;6.50;2.70;;;8.30;99.90;;;;;;5053740;28;20048;-84
2023/12/10 05:22:23;;;;;;;9.87;2.33;;;8.30;99.90;;;;;;5054214;28;20047;-84
2023/12/10 05:24:48;;;;;;;9.90;3.00;;;8.30;99.90;;;;;;5028234;28;20035;-87
2023/12/10 05:27:14;;;;;;;6.73;2.33;;;8.40;99.90;;;;;;5024914;28;20047;-83
2023/12/10 05:29:40;;;;;;;9.93;2.63;;;8.40;99.90;;;;;;5038690;28;20140;-86
2023/12/10 05:32:06;;;;;;;7.97;2.20;;;8.40;99.90;;;;;;5022169;28;20040;-88
2023/12/10 05:34:32;;;;;;;7.57;2.93;;;8.40;99.90;;;;;;5053285;28;20068;-81
2023/12/10 05:36:58;;;;;;;5.63;2.23;;;8.40;99.90;;;;;;5041085;28;20554;-88
2023/12/10 05:39:24;;;;;;;6.50;2.10;;;8.50;99.90;;;;;;5039707;28;20063;-87
2023/12/10 05:41:50;;;;;;;5.33;1.73;;;8.50;99.90;;;;;;5036146;28;20131;-86
2023/12/10 05:44:16;;;;;;;7.00;1.77;;;8.50;99.90;;;;;;5020203;28;20124;-86
2023/12/10 05:46:42;;;;;;;7.37;1.87;;;8.50;99.90;;;;;;5032482;28;20043;-86
2023/12/10 05:49:07;;;;;;;7.60;1.80;;;8.50;99.90;;;;;;5048680;28;20040;-88
2023/12/10 05:51:33;;;;;;;6.37;1.70;;;8.60;99.90;;;;;;5025589;28;20135;-85
2023/12/10 05:53:59;;;;;;;8.47;2.00;;;8.60;99.90;;;;;;5047980;28;20043;-88
2023/12/10 05:56:24;;;;;;;7.30;2.00;;;8.50;99.90;;;;;;5007390;28;20036;-87
2023/12/10 05:58:50;;;;;;;4.03;1.70;;;8.60;99.90;;;;;;5000726;28;20102;-84
2023/12/10 06:01:16;;;;;;;8.33;1.90;;;8.70;99.90;;;;;;5032432;28;20083;-84
2023/12/10 06:03:43;;;;;;;5.73;2.10;;;8.60;99.90;;;;;;5018767;28;20048;-88
2023/12/10 06:06:08;;;;;;;5.33;1.80;;;8.60;99.90;;;;;;5006332;28;20501;-88
2023/12/10 06:08:34;;;;;;;7.80;2.10;;;8.70;99.90;;;;;;5041936;28;20040;-89
2023/12/10 06:11:00;;;;;;;7.83;2.07;;;8.70;99.90;;;;;;5034858;28;20040;-86
2023/12/10 06:13:27;;;;;;;10.07;2.30;;;8.70;99.90;;;;;;5026019;28;20032;-86
2023/12/10 06:15:54;;;;;;;6.73;2.20;;;8.70;99.90;;;;;;5035557;28;20049;-88
2023/12/10 06:18:21;;;;;;;8.27;2.07;;;8.70;99.90;;;;;;5034016;28;20044;-88
2023/12/10 06:20:46;;;;;;;7.53;2.63;;;8.70;99.90;;;;;;4988241;28;20067;-86
2023/12/10 06:23:12;;;;;;;10.13;2.33;;;8.70;99.90;;;;;;5042056;28;20040;-83
2023/12/10 06:25:38;;;;;;;7.20;2.23;;;8.70;99.90;;;;;;5033597;28;20082;-82
2023/12/10 06:28:05;;;;;;;8.67;2.53;;;8.70;99.90;;;;;;5014681;28;20072;-82
2023/12/10 06:30:30;;;;;;;12.07;2.57;;;8.80;99.90;;;;;;5041342;28;20098;-87
2023/12/10 06:32:56;;;;;;;16.73;3.53;;;8.70;99.90;;;;;;5038109;28;20036;-84
2023/12/10 06:35:22;;;;;;;11.53;2.93;;;8.80;99.90;;;;;;5040072;28;20207;-84
2023/12/10 06:37:48;;;;;;;12.53;3.17;;;8.70;99.90;;;;;;5017241;28;20441;-87
2023/12/10 06:40:14;;;;;;;13.40;3.20;;;8.80;99.90;;;;;;5030167;28;20098;-85
2023/12/10 06:42:40;;;;;;;11.40;3.10;;;8.80;99.90;;;;;;5014027;28;20041;-90
2023/12/10 06:45:07;;;;;;;8.87;2.40;;;8.80;99.90;;;;;;5041720;28;20044;-85
2023/12/10 06:47:33;;;;;;;7.37;2.40;;;8.80;99.90;;;;;;5033909;28;20044;-87
2023/12/10 06:49:59;;;;;;;7.90;2.30;;;8.80;99.90;;;;;;5017408;28;20041;-87
2023/12/10 06:52:25;;;;;;;9.97;2.00;;;8.80;99.90;;;;;;5033490;28;20036;-82
2023/12/10 06:54:51;;;;;;;8.23;2.30;;;8.80;99.90;;;;;;5034985;28;20064;-81
2023/12/10 06:57:17;;;;;;;8.90;2.20;;;8.80;99.90;;;;;;5049843;28;20050;-85
2023/12/10 06:59:43;;;;;;;13.30;2.90;;;8.70;99.90;;;;;;5026615;28;20048;-80
2023/12/10 07:02:09;;;;;;;9.83;2.60;;;8.70;99.90;;;;;;5068841;28;20052;-80
2023/12/10 07:04:36;;;;;;;11.00;2.77;;;8.70;99.90;;;;;;5033939;28;20048;-82
2023/12/10 07:07:02;;;;;;;10.53;2.77;;;8.70;99.90;;;;;;5049836;28;20416;-90
2023/12/10 07:09:27;;;;;;;8.70;2.67;;;8.70;99.90;;;;;;4998105;28;20087;-85
2023/12/10 07:11:53;;;;;;;12.33;2.93;;;8.70;99.90;;;;;;5024994;28;20560;-80
2023/12/10 07:14:19;;;;;;;8.97;2.90;;;8.70;99.90;;;;;;5016959;28;20045;-82
2023/12/10 07:16:45;;;;;;;10.87;3.13;;;8.70;99.90;;;;;;5032956;28;20075;-83
2023/12/10 07:19:11;;;;;;;16.40;3.23;;;8.70;99.90;;;;;;5033125;28;20063;-80
2023/12/10 07:21:37;;;;;;;12.70;2.87;;;8.60;99.90;;;;;;5022385;28;20548;-81
2023/12/10 07:24:04;;;;;;;14.63;3.53;;;8.70;99.90;;;;;;5032871;28;20052;-81
2023/12/10 07:26:30;;;;;;;17.60;3.83;;;8.70;99.90;;;;;;5049536;28;20060;-82
2023/12/10 07:28:55;;;;;;;17.53;3.97;;;8.70;99.90;;;;;;5033526;28;20086;-87
2023/12/10 07:31:21;;;;;;;19.03;4.50;;;8.80;99.90;;;;;;5033265;28;20556;-83
2023/12/10 07:33:47;;;;;;;22.67;4.70;;;8.70;99.90;;;;;;5049958;28;20032;-82
2023/12/10 07:36:14;;;;;;;21.40;4.80;;;8.80;99.90;;;;;;5034275;28;20050;-86
2023/12/10 07:38:40;;;;;;;18.67;4.53;;;8.70;99.90;;;;;;5041906;28;20106;-83
2023/12/10 07:41:06;;;;;;;23.80;4.90;;;8.70;99.90;;;;;;5050469;28;20101;-87
2023/12/10 07:43:32;;;;;;;25.50;5.33;;;8.70;99.90;;;;;;5049882;28;20044;-81
2023/12/10 07:45:58;;;;;;;25.87;5.80;;;8.70;99.90;;;;;;5032935;28;20124;-82
2023/12/10 07:48:24;;;;;;;26.00;5.20;;;8.60;99.90;;;;;;5017679;28;20460;-82
2023/12/10 07:50:50;;;;;;;17.73;4.40;;;8.70;99.90;;;;;;5017815;28;20037;-83
2023/12/10 07:53:16;;;;;;;14.93;3.57;;;8.70;99.90;;;;;;5017687;28;20044;-87
2023/12/10 07:55:43;;;;;;;17.23;3.77;;;8.70;99.90;;;;;;5033853;28;20436;-86
2023/12/10 07:58:09;;;;;;;16.60;4.40;;;8.70;99.90;;;;;;5033458;28;20045;-92
2023/12/10 08:00:35;;;;;;;16.33;3.80;;;8.70;99.90;;;;;;5033785;28;20066;-82
2023/12/10 08:03:00;;;;;;;13.90;3.53;;;8.70;99.90;;;;;;5032936;28;20499;-83
2023/12/10 08:05:26;;;;;;;18.20;3.70;;;8.70;99.90;;;;;;5036672;28;20044;-88
2023/12/10 08:07:52;;;;;;;17.47;3.60;;;8.70;99.90;;;;;;5037196;28;20044;-83
2023/12/10 08:10:18;;;;;;;15.10;3.87;;;8.70;99.90;;;;;;5036705;28;20518;-83
2023/12/10 08:12:44;;;;;;;20.63;3.90;;;8.70;99.90;;;;;;5037068;28;20360;-87
2023/12/10 08:15:10;;;;;;;15.60;4.23;;;8.70;99.90;;;;;;5039511;28;20067;-80
2023/12/10 08:17:36;;;;;;;15.97;3.50;;;8.70;99.90;;;;;;5034110;28;20067;-82
2023/12/10 08:20:03;;;;;;;15.13;3.50;;;8.70;99.90;;;;;;5027523;28;20375;-82
2023/12/10 08:22:29;;;;;;;15.43;3.83;;;8.70;99.90;;;;;;5036689;28;20468;-85
2023/12/10 08:24:54;;;;;;;8.33;2.83;;;8.70;99.90;;;;;;5041576;28;20124;-80
2023/12/10 08:27:20;;;;;;;15.63;3.47;;;8.80;99.90;;;;;;5052920;28;20048;-85
2023/12/10 08:29:46;;;;;;;13.97;3.23;;;8.70;99.90;;;;;;5020309;28;20032;-87
2023/12/10 08:32:12;;;;;;;12.07;3.40;;;8.70;99.90;;;;;;5000332;28;20039;-85
2023/12/10 08:34:38;;;;;;;15.77;3.53;;;8.60;99.90;;;;;;5037001;28;20037;-83
2023/12/10 08:37:04;;;;;;;20.27;3.30;;;8.60;99.90;;;;;;5030505;28;20044;-84
2023/12/10 08:39:30;;;;;;;16.33;3.70;;;8.60;99.90;;;;;;5038007;28;20032;-90
2023/12/10 08:41:56;;;;;;;13.50;3.27;;;8.60;99.90;;;;;;5037423;28;20044;-87
2023/12/10 08:44:21;;;;;;;19.43;4.10;;;8.60;99.90;;;;;;5036781;28;20044;-86
2023/12/10 08:46:47;;;;;;;12.57;3.70;;;8.60;99.90;;;;;;5036995;28;20046;-89
2023/12/10 08:49:13;;;;;;;18.27;3.93;;;8.60;99.90;;;;;;5039200;28;20407;-91
2023/12/10 08:51:39;;;;;;;14.77;3.30;;;8.60;99.90;;;;;;5042978;28;20075;-86
2023/12/10 08:54:05;;;;;;;14.70;3.33;;;8.60;99.90;;;;;;5005577;28;20093;-88
2023/12/10 08:56:31;;;;;;;12.77;2.90;;;8.60;99.90;;;;;;5038282;28;20048;-85
2023/12/10 08:58:56;;;;;;;16.80;3.17;;;8.60;99.90;;;;;;5022483;28;20124;-88
2023/12/10 09:01:22;;;;;;;13.40;3.00;;;8.70;99.90;;;;;;5036763;28;20102;-87
2023/12/10 09:03:48;;;;;;;17.20;3.43;;;8.70;99.90;;;;;;5002284;28;20041;-86
2023/12/10 09:06:14;;;;;;;17.10;3.93;;;8.70;99.90;;;;;;5018760;28;20131;-87
2023/12/10 09:08:40;;;;;;;12.30;3.27;;;8.60;99.90;;;;;;5062307;28;20036;-86
2023/12/10 09:11:06;;;;;;;20.53;4.27;;;8.60;99.90;;;;;;5051416;28;20509;-90
2023/12/10 09:13:33;;;;;;;17.67;3.20;;;8.60;99.90;;;;;;5023507;28;20063;-89
2023/12/10 09:15:59;;;;;;;13.50;3.27;;;8.70;99.90;;;;;;5055499;28;20139;-90
2023/12/10 09:18:28;;;;;;;16.30;3.73;;;8.70;99.90;;;;;;5023231;28;20106;-89
2023/12/10 09:20:54;;;;;;;12.20;3.13;;;8.70;99.90;;;;;;5038499;28;20075;-88
2023/12/10 09:23:21;;;;;;;16.70;3.40;;;8.60;99.90;;;;;;5054829;28;20040;-89
2023/12/10 09:25:48;;;;;;;13.70;3.07;;;8.60;99.90;;;;;;5055646;28;20037;-82
2023/12/10 09:28:13;;;;;;;17.83;3.63;;;8.60;99.90;;;;;;5009853;28;20041;-90
2023/12/10 09:30:40;;;;;;;15.73;3.20;;;8.60;99.90;;;;;;5002842;28;20047;-85
2023/12/10 09:33:06;;;;;;;13.80;3.17;;;8.70;99.90;;;;;;5053910;28;20078;-89
2023/12/10 09:35:32;;;;;;;14.53;3.03;;;8.70;99.90;;;;;;5055267;28;20072;-89
2023/12/10 09:38:00;;;;;;;18.53;3.30;;;8.60;99.90;;;;;;5005689;28;20041;-88
2023/12/10 09:40:26;;;;;;;15.10;3.53;;;8.60;99.90;;;;;;5040874;28;20036;-90
2023/12/10 09:42:52;;;;;;;16.37;3.70;;;8.60;99.90;;;;;;5040193;28;20040;-88
2023/12/10 09:45:18;;;;;;;18.90;4.67;;;8.60;99.90;;;;;;5038510;28;20037;-92
2023/12/10 09:47:46;;;;;;;17.47;4.43;;;8.60;99.90;;;;;;5021870;28;20047;-92
2023/12/10 09:50:12;;;;;;;19.60;4.23;;;8.60;99.90;;;;;;5040312;28;20097;-92
2023/12/10 09:52:37;;;;;;;16.87;4.30;;;8.60;99.90;;;;;;5039864;28;20516;-90
2023/12/10 09:55:04;;;;;;;18.77;4.00;;;8.70;99.90;;;;;;5022426;28;20048;-91
2023/12/10 09:57:30;;;;;;;16.97;3.97;;;8.70;99.90;;;;;;5023332;28;20040;-83
2023/12/10 09:59:56;;;;;;;18.40;3.80;;;8.70;99.90;;;;;;5055001;28;20133;-90
2023/12/10 10:02:32;;;;;;;17.70;4.23;;;8.70;99.90;;;;;;5022628;28;20107;-92
2023/12/10 10:04:58;;;;;;;18.83;4.90;;;8.80;99.90;;;;;;5055688;28;20094;-90
2023/12/10 10:07:24;;;;;;;25.97;5.33;;;8.70;99.90;;;;;;5038268;28;20587;-89
2023/12/10 10:09:51;;;;;;;24.70;5.70;;;8.70;99.90;;;;;;5007516;28;20079;-91
2023/12/10 10:12:17;;;;;;;16.00;4.77;;;8.70;99.90;;;;;;5036722;28;20044;-86
2023/12/10 10:14:56;;;;;;;27.17;6.00;;;8.70;99.90;;;;;;5021261;28;20114;-87
2023/12/10 10:17:29;;;;;;;23.10;5.60;;;8.70;99.90;;;;;;5020741;28;20048;-89
2023/12/10 10:19:56;;;;;;;21.70;6.33;;;8.70;99.90;;;;;;5035005;28;20083;-88
2023/12/10 10:22:26;;;;;;;29.60;6.23;;;8.60;99.90;;;;;;5037289;28;20128;-87
2023/12/10 10:24:52;;;;;;;26.83;6.63;;;8.70;99.90;;;;;;5018301;28;20492;-84
2023/12/10 10:27:18;;;;;;;29.67;6.87;;;8.60;99.90;;;;;;5018084;28;20056;-90
2023/12/10 10:29:45;;;;;;;25.40;6.57;;;8.70;99.90;;;;;;5021256;28;20044;-89
2023/12/10 10:32:16;;;;;;;26.87;6.17;;;8.70;99.90;;;;;;5041134;28;20626;-85
2023/12/10 10:34:46;;;;;;;34.08;6.55;;;8.70;99.90;;;;;;5051962;28;20033;-88
2023/12/10 10:37:13;;;;;;;25.63;6.03;;;8.70;99.90;;;;;;5037655;28;20534;-89
2023/12/10 10:39:38;;;;;;;45.17;8.77;;;8.70;99.90;;;;;;5036196;28;20090;-88
2023/12/10 10:42:08;;;;;;;29.63;6.17;;;8.70;99.90;;;;;;5022745;28;20496;-87
2023/12/10 10:44:35;;;;;;;29.23;6.97;;;8.70;99.90;;;;;;5034723;28;20045;-83
2023/12/10 10:47:04;;;;;;;26.80;6.33;;;8.80;99.90;;;;;;5034441;28;20040;-85
2023/12/10 10:49:33;;;;;;;29.40;6.70;;;8.70;99.90;;;;;;5034516;28;20468;-84
2023/12/10 10:52:02;;;;;;;26.00;6.83;;;8.80;99.90;;;;;;5033947;28;20037;-89
2023/12/10 10:54:28;;;;;;;30.57;6.90;;;8.80;99.90;;;;;;5034718;28;20072;-84
2023/12/10 10:56:54;;;;;;;30.57;6.80;;;8.80;99.90;;;;;;5051049;28;20044;-88
2023/12/10 10:59:34;;;;;;;30.27;7.50;;;8.80;99.90;;;;;;5038011;28;20046;-86
2023/12/10 11:02:07;;;;;;;28.40;6.50;;;8.90;99.90;;;;;;5033448;28;20098;-86
2023/12/10 11:04:34;;;;;;;29.70;6.77;;;8.90;99.90;;;;;;5014228;28;20048;-89
2023/12/10 11:07:02;;;;;;;34.73;6.70;;;8.80;99.90;;;;;;5018386;28;20048;-86
2023/12/10 11:09:30;;;;;;;31.07;6.63;;;8.80;99.90;;;;;;5050930;28;20044;-87
2023/12/10 11:11:58;;;;;;;22.70;6.23;;;8.80;99.90;;;;;;5049984;28;20036;-87
2023/12/10 11:14:24;;;;;;;23.70;6.43;;;8.80;99.90;;;;;;5017875;28;20032;-88
2023/12/10 11:16:56;;;;;;;23.83;6.33;;;8.80;99.90;;;;;;5033363;28;20044;-87
2023/12/10 11:19:22;;;;;;;25.52;6.07;;;8.80;99.90;;;;;;5035462;28;20135;-91
2023/12/10 11:21:49;;;;;;;26.00;6.07;;;8.90;99.90;;;;;;5038374;28;20048;-88
2023/12/10 11:24:15;;;;;;;26.27;5.73;;;8.80;99.90;;;;;;5021643;28;20075;-89
2023/12/10 11:26:41;;;;;;;29.00;5.47;;;8.80;99.90;;;;;;5028703;28;20053;-90
2023/12/10 11:29:07;;;;;;;26.33;5.90;;;8.90;99.90;;;;;;5002949;28;20040;-92
2023/12/10 11:31:34;;;;;;;31.63;6.47;;;8.90;99.90;;;;;;5015321;28;20407;-91
2023/12/10 11:34:00;;;;;;;23.43;5.83;;;8.80;99.90;;;;;;5054141;28;20484;-86
2023/12/10 11:36:26;;;;;;;22.53;5.40;;;8.80;99.90;;;;;;5003143;28;20109;-89
2023/12/10 11:38:52;;;;;;;26.00;5.60;;;8.90;99.90;;;;;;5055582;28;20055;-89
2023/12/10 11:41:18;;;;;;;25.57;5.70;;;8.90;99.90;;;;;;5043534;28;20747;-88
2023/12/10 11:43:45;;;;;;;22.43;5.40;;;8.90;99.90;;;;;;5041193;28;20051;-88
2023/12/10 11:46:22;;;;;;;24.50;5.53;;;8.90;99.90;;;;;;5039352;28;20144;-90
2023/12/10 11:48:50;;;;;;;32.63;6.50;;;9.00;99.90;;;;;;5039122;28;20106;-88
2023/12/10 11:51:19;;;;;;;22.50;5.93;;;9.00;99.90;;;;;;5038781;28;20039;-90
2023/12/10 11:53:45;;;;;;;28.97;6.33;;;9.00;99.90;;;;;;5039803;28;20093;-89
2023/12/10 11:56:11;;;;;;;23.03;5.63;;;9.10;99.90;;;;;;5038333;28;20127;-88
2023/12/10 11:58:37;;;;;;;24.60;5.57;;;9.10;99.90;;;;;;5037545;28;20178;-89
2023/12/10 12:01:03;;;;;;;21.33;5.90;;;9.10;99.90;;;;;;5037358;28;20064;-88
2023/12/10 12:03:33;;;;;;;27.07;5.60;;;9.10;99.90;;;;;;5038632;28;20067;-92
2023/12/10 12:05:59;;;;;;;24.90;5.50;;;9.00;99.90;;;;;;5037986;28;20135;-89
2023/12/10 12:08:26;;;;;;;23.80;5.50;;;9.00;99.90;;;;;;5023905;28;20044;-89
2023/12/10 12:10:53;;;;;;;22.10;5.17;;;9.10;99.90;;;;;;5038418;28;20047;-88
2023/12/10 12:13:19;;;;;;;23.43;5.50;;;9.00;99.90;;;;;;5038280;28;20063;-91
2023/12/10 12:15:49;;;;;;;22.13;5.57;;;9.00;99.90;;;;;;5037786;28;20495;-92
2023/12/10 12:18:15;;;;;;;22.97;5.87;;;9.00;99.90;;;;;;5038221;28;20369;-88
2023/12/10 12:20:41;;;;;;;26.00;5.50;;;8.90;99.90;;;;;;5038170;28;20039;-88
2023/12/10 12:23:07;;;;;;;25.53;5.63;;;8.90;99.90;;;;;;5038061;28;20395;-90
2023/12/10 12:25:38;;;;;;;23.80;5.60;;;8.90;99.90;;;;;;5032573;28;20043;-84
2023/12/10 12:28:07;;;;;;;19.57;4.73;;;8.90;99.90;;;;;;5036894;28;20040;-87
2023/12/10 12:30:35;;;;;;;23.80;5.37;;;8.90;99.90;;;;;;5004595;28;20036;-89
2023/12/10 12:33:01;;;;;;;27.47;5.40;;;8.90;99.90;;;;;;5020654;28;20087;-90
2023/12/10 12:35:27;;;;;;;28.20;5.27;;;8.90;99.90;;;;;;5028869;28;20068;-89
2023/12/10 12:37:54;;;;;;;25.53;6.10;;;8.90;99.90;;;;;;5036879;28;20044;-87
2023/12/10 12:40:20;;;;;;;27.70;5.77;;;8.90;99.90;;;;;;5002904;28;20045;-88
2023/12/10 12:42:49;;;;;;;22.37;5.60;;;8.90;99.90;;;;;;5052992;28;20127;-88